| time (UTC) | temp C | wind direction | speed KPH | gust KPH | rain 1hr cm | rain 24hr cm | rain mn cm | humidity % | barometer mb |
| 20260906234542 | 26 | 192 | 4.8 | 4.8 | 0.00 | 0.00 | 0.00 | 39 | 1014.1 |
| 20260906234036 | 26 | 205 | 3.2 | 3.2 | 0.00 | 0.00 | 0.00 | 40 | 1014.0 |
| 20260906233535 | 26 | 219 | 3.2 | 3.2 | 0.00 | 0.00 | 0.00 | 40 | 1013.8 |
| 20260906233034 | 26 | 198 | 3.2 | 3.2 | 0.00 | 0.00 | 0.00 | 40 | 1014.3 |
| 20260906232530 | 26 | 194 | 4.8 | 4.8 | 0.00 | 0.00 | 0.00 | 39 | 1014.1 |
| 20260906232025 | 26 | 225 | 8.0 | 9.7 | 0.00 | 0.00 | 0.00 | 39 | 1014.1 |
| 20260906231525 | 26 | 208 | 4.8 | 4.8 | 0.00 | 0.00 | 0.00 | 39 | 1014.1 |
| 20260906231020 | 26 | 185 | 9.7 | 11.3 | 0.00 | 0.00 | 0.00 | 38 | 1014.4 |
| 20260906230519 | 26 | 225 | 9.7 | 11.3 | 0.00 | 0.00 | 0.00 | 38 | 1014.3 |
| 20260906230019 | 27 | 203 | 6.4 | 8.0 | 0.00 | 0.00 | 0.00 | 39 | 1014.4 |
| 20260906225513 | 27 | 202 | 8.0 | 9.7 | 0.00 | 0.00 | 0.00 | 37 | 1014.6 |
| 20260906225009 | 27 | 192 | 8.0 | 8.0 | 0.00 | 0.00 | 0.00 | 38 | 1014.5 |
| 20260906224504 | 27 | 218 | 9.7 | 12.9 | 0.00 | 0.00 | 0.00 | 36 | 1014.5 |
| 20260906224000 | 27 | 222 | 6.4 | 8.0 | 0.00 | 0.00 | 0.00 | 38 | 1014.4 |
| 20260906223456 | 27 | 227 | 16.1 | 17.7 | 0.00 | 0.00 | 0.00 | 37 | 1014.5 |
| 20260906222954 | 27 | 217 | 9.7 | 11.3 | 0.00 | 0.00 | 0.00 | 37 | 1014.5 |
| 20260906222449 | 27 | 229 | 16.1 | 17.7 | 0.00 | 0.00 | 0.00 | 37 | 1014.4 |
| 20260906221947 | 27 | 244 | 14.5 | 14.5 | 0.00 | 0.00 | 0.00 | 37 | 1014.6 |
| 20260906221446 | 28 | 229 | 14.5 | 17.7 | 0.00 | 0.00 | 0.00 | 36 | 1014.5 |
| 20260906220942 | 28 | 219 | 14.5 | 16.1 | 0.00 | 0.00 | 0.00 | 35 | 1014.4 |
| 20260906220437 | 28 | 209 | 19.3 | 25.7 | 0.00 | 0.00 | 0.00 | 36 | 1014.5 |
| 20260906215937 | 28 | 216 | 17.7 | 20.9 | 0.00 | 0.00 | 0.00 | 36 | 1014.6 |
| 20260906215437 | 28 | 223 | 19.3 | 27.4 | 0.00 | 0.00 | 0.00 | 36 | 1014.8 |
| 20260906214935 | 28 | 216 | 16.1 | 17.7 | 0.00 | 0.00 | 0.00 | 36 | 1014.8 |
| 20260906214434 | 28 | 247 | 11.3 | 12.9 | 0.00 | 0.00 | 0.00 | 36 | 1014.6 |
| 20260906213933 | 28 | 222 | 14.5 | 16.1 | 0.00 | 0.00 | 0.00 | 37 | 1014.5 |
| 20260906213428 | 28 | 268 | 11.3 | 12.9 | 0.00 | 0.00 | 0.00 | 35 | 1014.9 |
| 20260906212926 | 27 | 253 | 19.3 | 24.1 | 0.00 | 0.00 | 0.00 | 37 | 1014.9 |
| 20260906212421 | 27 | 231 | 9.7 | 9.7 | 0.00 | 0.00 | 0.00 | 37 | 1014.8 |
| 20260906211921 | 27 | 215 | 8.0 | 9.7 | 0.00 | 0.00 | 0.00 | 36 | 1014.8 |
| 20260906211416 | 28 | 197 | 12.9 | 14.5 | 0.00 | 0.00 | 0.00 | 36 | 1015.0 |
| 20260906210910 | 28 | 248 | 16.1 | 24.1 | 0.00 | 0.00 | 0.00 | 35 | 1014.8 |
| 20260906210407 | 27 | 217 | 12.9 | 14.5 | 0.00 | 0.00 | 0.00 | 35 | 1015.0 |
| 20260906205901 | 27 | 179 | 12.9 | 17.7 | 0.00 | 0.00 | 0.00 | 35 | 1014.9 |
| 20260906205357 | 28 | 214 | 11.3 | 12.9 | 0.00 | 0.00 | 0.00 | 35 | 1015.2 |
| 20260906204853 | 28 | 212 | 14.5 | 17.7 | 0.00 | 0.00 | 0.00 | 34 | 1015.1 |
| 20260906204351 | 28 | 205 | 12.9 | 14.5 | 0.00 | 0.00 | 0.00 | 34 | 1015.2 |
| 20260906203851 | 28 | 207 | 8.0 | 11.3 | 0.00 | 0.00 | 0.00 | 35 | 1015.2 |
| 20260906203347 | 27 | 237 | 3.2 | 3.2 | 0.00 | 0.00 | 0.00 | 35 | 1015.3 |
| 20260906202844 | 27 | 218 | 1.6 | 1.6 | 0.00 | 0.00 | 0.00 | 34 | 1015.4 |
| 20260906202343 | 27 | 199 | 6.4 | 8.0 | 0.00 | 0.00 | 0.00 | 36 | 1015.6 |
| 20260906201843 | 27 | 228 | 12.9 | 14.5 | 0.00 | 0.00 | 0.00 | 34 | 1015.7 |
| 20260906201338 | 27 | 190 | 12.9 | 14.5 | 0.00 | 0.00 | 0.00 | 35 | 1015.6 |
| 20260906200834 | 27 | 238 | 8.0 | 11.3 | 0.00 | 0.00 | 0.00 | 35 | 1015.6 |
| 20260906200330 | 26 | 243 | 8.0 | 9.7 | 0.00 | 0.00 | 0.00 | 35 | 1015.6 |
| 20260906195829 | 27 | 247 | 14.5 | 16.1 | 0.00 | 0.00 | 0.00 | 35 | 1015.7 |
| 20260906195326 | 26 | 220 | 16.1 | 17.7 | 0.00 | 0.00 | 0.00 | 35 | 1016.0 |
| 20260906194822 | 26 | 239 | 12.9 | 16.1 | 0.00 | 0.00 | 0.00 | 35 | 1016.1 |
| 20260906194317 | 26 | 240 | 12.9 | 14.5 | 0.00 | 0.00 | 0.00 | 35 | 1016.1 |
| 20260906193812 | 26 | 212 | 19.3 | 22.5 | 0.00 | 0.00 | 0.00 | 35 | 1016.1 |
| 20260906193307 | 27 | 213 | 12.9 | 14.5 | 0.00 | 0.00 | 0.00 | 35 | 1016.0 |
| 20260906192758 | 27 | 209 | 11.3 | 12.9 | 0.00 | 0.00 | 0.00 | 35 | 1015.9 |
| 20260906192257 | 27 | 209 | 16.1 | 17.7 | 0.00 | 0.00 | 0.00 | 34 | 1015.9 |
| 20260906191756 | 27 | 212 | 12.9 | 16.1 | 0.00 | 0.00 | 0.00 | 33 | 1016.1 |
| 20260906191252 | 27 | 226 | 19.3 | 20.9 | 0.00 | 0.00 | 0.00 | 33 | 1016.0 |
| 20260906190751 | 27 | 217 | 12.9 | 14.5 | 0.00 | 0.00 | 0.00 | 33 | 1016.2 |
| 20260906190245 | 27 | 210 | 17.7 | 20.9 | 0.00 | 0.00 | 0.00 | 32 | 1016.2 |
| 20260906185744 | 27 | 228 | 11.3 | 14.5 | 0.00 | 0.00 | 0.00 | 32 | 1016.4 |
| 20260906185244 | 27 | 236 | 17.7 | 20.9 | 0.00 | 0.00 | 0.00 | 33 | 1016.4 |
| 20260906184739 | 28 | 191 | 19.3 | 22.5 | 0.00 | 0.00 | 0.00 | 33 | 1016.5 |
| 20260906184234 | 27 | 211 | 8.0 | 11.3 | 0.00 | 0.00 | 0.00 | 32 | 1016.4 |
| 20260906183729 | 27 | 261 | 17.7 | 20.9 | 0.00 | 0.00 | 0.00 | 31 | 1016.5 |
| 20260906183227 | 27 | 233 | 19.3 | 20.9 | 0.00 | 0.00 | 0.00 | 32 | 1016.6 |
| 20260906182726 | 27 | 225 | 16.1 | 20.9 | 0.00 | 0.00 | 0.00 | 32 | 1016.5 |
| 20260906182222 | 27 | 212 | 16.1 | 17.7 | 0.00 | 0.00 | 0.00 | 33 | 1016.7 |
| 20260906181717 | 27 | 202 | 16.1 | 17.7 | 0.00 | 0.00 | 0.00 | 33 | 1016.7 |
| 20260906181214 | 27 | 296 | 11.3 | 17.7 | 0.00 | 0.00 | 0.00 | 32 | 1016.7 |
| 20260906180713 | 27 | 270 | 22.5 | 27.4 | 0.00 | 0.00 | 0.00 | 32 | 1017.0 |
| 20260906180208 | 27 | 241 | 12.9 | 14.5 | 0.00 | 0.00 | 0.00 | 32 | 1017.2 |
| 20260906175706 | 26 | 207 | 14.5 | 20.9 | 0.00 | 0.00 | 0.00 | 32 | 1017.4 |
| 20260906175201 | 26 | 247 | 19.3 | 24.1 | 0.00 | 0.00 | 0.00 | 32 | 1017.6 |
| 20260906174700 | 26 | 272 | 16.1 | 22.5 | 0.00 | 0.00 | 0.00 | 31 | 1017.4 |
| 20260906174154 | 26 | 225 | 14.5 | 16.1 | 0.00 | 0.00 | 0.00 | 32 | 1017.5 |
| 20260906173650 | 26 | 228 | 14.5 | 16.1 | 0.00 | 0.00 | 0.00 | 32 | 1017.5 |
| 20260906173145 | 26 | 224 | 16.1 | 16.1 | 0.00 | 0.00 | 0.00 | 33 | 1017.6 |
| 20260906172645 | 26 | 214 | 16.1 | 17.7 | 0.00 | 0.00 | 0.00 | 33 | 1017.5 |
| 20260906172140 | 26 | 233 | 22.5 | 27.4 | 0.00 | 0.00 | 0.00 | 32 | 1017.6 |
| 20260906171640 | 26 | 210 | 19.3 | 24.1 | 0.00 | 0.00 | 0.00 | 32 | 1017.5 |
| 20260906171135 | 26 | 199 | 22.5 | 24.1 | 0.00 | 0.00 | 0.00 | 33 | 1017.7 |
| 20260906170632 | 26 | 225 | 19.3 | 22.5 | 0.00 | 0.00 | 0.00 | 33 | 1017.6 |
| 20260906170131 | 26 | 214 | 19.3 | 22.5 | 0.00 | 0.00 | 0.00 | 34 | 1017.7 |
| 20260906165627 | 26 | 226 | 24.1 | 29.0 | 0.00 | 0.00 | 0.00 | 34 | 1017.7 |
| 20260906165123 | 26 | 223 | 20.9 | 29.0 | 0.00 | 0.00 | 0.00 | 33 | 1018.0 |
| 20260906164621 | 26 | 235 | 12.9 | 17.7 | 0.00 | 0.00 | 0.00 | 36 | 1017.4 |
| 20260906164117 | 25 | 195 | 20.9 | 24.1 | 0.00 | 0.00 | 0.00 | 35 | 1017.5 |
| 20260906163613 | 25 | 194 | 25.7 | 33.8 | 0.00 | 0.00 | 0.00 | 35 | 1017.7 |
| 20260906163109 | 25 | 231 | 14.5 | 17.7 | 0.00 | 0.00 | 0.00 | 37 | 1018.0 |
| 20260906162606 | 25 | 195 | 4.8 | 8.0 | 0.00 | 0.00 | 0.00 | 40 | 1017.8 |
| 20260906162101 | 25 | 206 | 6.4 | 8.0 | 0.00 | 0.00 | 0.00 | 40 | 1018.2 |
| 20260906161601 | 24 | 172 | 3.2 | 3.2 | 0.00 | 0.00 | 0.00 | 39 | 1018.0 |
| 20260906161059 | 25 | 209 | 3.2 | 3.2 | 0.00 | 0.00 | 0.00 | 39 | 1018.1 |
| 20260906160558 | 24 | 201 | 3.2 | 3.2 | 0.00 | 0.00 | 0.00 | 40 | 1018.0 |
| 20260906160057 | 24 | 214 | 1.6 | 3.2 | 0.00 | 0.00 | 0.00 | 40 | 1018.0 |
| 20260906155555 | 23 | 223 | 0.0 | 1.6 | 0.00 | 0.00 | 0.00 | 38 | 1018.2 |
| 20260906155051 | 23 | 203 | 0.0 | 0.0 | 0.00 | 0.00 | 0.00 | 42 | 1018.0 |
| 20260906154546 | 22 | 225 | 0.0 | 0.0 | 0.00 | 0.00 | 0.00 | 42 | 1018.0 |
| 20260906154045 | 21 | 220 | 0.0 | 0.0 | 0.00 | 0.00 | 0.00 | 45 | 1018.1 |
| 20260906153544 | 21 | 206 | 3.2 | 3.2 | 0.00 | 0.00 | 0.00 | 45 | 1018.1 |
| 20260906153040 | 20 | 191 | 3.2 | 3.2 | 0.00 | 0.00 | 0.00 | 46 | 1018.1 |
| 20260906152539 | 20 | 211 | 1.6 | 1.6 | 0.00 | 0.00 | 0.00 | 46 | 1018.2 |
| 20260906152038 | 20 | 199 | 1.6 | 3.2 | 0.00 | 0.00 | 0.00 | 47 | 1018.1 |
| 20260906151534 | 19 | 218 | 3.2 | 3.2 | 0.00 | 0.00 | 0.00 | 47 | 1018.1 |
| 20260906151030 | 19 | 254 | 3.2 | 3.2 | 0.00 | 0.00 | 0.00 | 49 | 1018.3 |
| 20260906150525 | 18 | 248 | 3.2 | 3.2 | 0.00 | 0.00 | 0.00 | 50 | 1018.2 |
| 20260906150020 | 18 | 229 | 1.6 | 3.2 | 0.00 | 0.00 | 0.00 | 51 | 1018.1 |
| 20260906145518 | 18 | 247 | 0.0 | 0.0 | 0.00 | 0.00 | 0.00 | 50 | 1018.1 |
| 20260906145014 | 17 | 243 | 1.6 | 3.2 | 0.00 | 0.00 | 0.00 | 50 | 1018.1 |
| 20260906144509 | 17 | 234 | 1.6 | 1.6 | 0.00 | 0.00 | 0.00 | 53 | 1017.7 |
| 20260906144004 | 17 | 219 | 3.2 | 3.2 | 0.00 | 0.00 | 0.00 | 55 | 1017.8 |
| 20260906143459 | 17 | 231 | 6.4 | 8.0 | 0.00 | 0.00 | 0.00 | 53 | 1017.8 |
| 20260906142955 | 16 | 236 | 0.0 | 0.0 | 0.00 | 0.00 | 0.00 | 52 | 1017.8 |
| 20260906142454 | 16 | 205 | 0.0 | 0.0 | 0.00 | 0.00 | 0.00 | 54 | 1017.8 |
| 20260906141949 | 16 | 212 | 6.4 | 8.0 | 0.00 | 0.00 | 0.00 | 53 | 1017.8 |
| 20260906141449 | 16 | 226 | 0.0 | 0.0 | 0.00 | 0.00 | 0.00 | 53 | 1017.8 |
| 20260906140944 | 16 | 210 | 0.0 | 0.0 | 0.00 | 0.00 | 0.00 | 53 | 1018.0 |
| 20260906140438 | 15 | 269 | 0.0 | 0.0 | 0.00 | 0.00 | 0.00 | 53 | 1017.7 |
| 20260906135937 | 15 | 234 | 0.0 | 0.0 | 0.00 | 0.00 | 0.00 | 55 | 1017.8 |
| 20260906135435 | 14 | 225 | 1.6 | 3.2 | 0.00 | 0.00 | 0.00 | 57 | 1017.6 |
| 20260906134931 | 14 | 216 | 4.8 | 4.8 | 0.00 | 0.00 | 0.00 | 58 | 1017.7 |
| 20260906134426 | 14 | 217 | 0.0 | 0.0 | 0.00 | 0.00 | 0.00 | 58 | 1017.6 |
| 20260906133921 | 13 | 211 | 3.2 | 3.2 | 0.00 | 0.00 | 0.00 | 58 | 1017.3 |
| 20260906133417 | 13 | 165 | 1.6 | 1.6 | 0.00 | 0.00 | 0.00 | 59 | 1017.4 |
| 20260906132913 | 13 | 262 | 0.0 | 0.0 | 0.00 | 0.00 | 0.00 | 59 | 1017.5 |
| 20260906132408 | 12 | 208 | 3.2 | 3.2 | 0.00 | 0.00 | 0.00 | 62 | 1017.6 |
| 20260906131903 | 12 | 222 | 1.6 | 1.6 | 0.00 | 0.00 | 0.00 | 61 | 1017.3 |
| 20260906131359 | 11 | 242 | 3.2 | 3.2 | 0.00 | 0.00 | 0.00 | 65 | 1017.4 |
| 20260906130855 | 12 | 216 | 0.0 | 0.0 | 0.00 | 0.00 | 0.00 | 66 | 1017.2 |
| 20260906130354 | 12 | 229 | 0.0 | 0.0 | 0.00 | 0.00 | 0.00 | 66 | 1017.3 |
| 20260906125853 | 12 | 219 | 1.6 | 1.6 | 0.00 | 0.00 | 0.00 | 65 | 1017.3 |
| 20260906125350 | 11 | 236 | 1.6 | 3.2 | 0.00 | 0.00 | 0.00 | 66 | 1017.3 |
| 20260906124845 | 11 | 232 | 1.6 | 1.6 | 0.00 | 0.00 | 0.00 | 67 | 1017.4 |
| 20260906124341 | 11 | 220 | 1.6 | 4.8 | 0.00 | 0.00 | 0.00 | 67 | 1017.3 |
| 20260906123840 | 12 | 221 | 1.6 | 1.6 | 0.00 | 0.00 | 0.00 | 67 | 1017.0 |
| 20260906123335 | 12 | 247 | 0.0 | 0.0 | 0.00 | 0.00 | 0.00 | 65 | 1016.9 |
| 20260906122834 | 12 | 250 | 1.6 | 1.6 | 0.00 | 0.00 | 0.00 | 65 | 1016.9 |
| 20260906122330 | 12 | 223 | 0.0 | 0.0 | 0.00 | 0.00 | 0.00 | 64 | 1016.8 |
| 20260906121827 | 12 | 229 | 3.2 | 3.2 | 0.00 | 0.00 | 0.00 | 63 | 1016.9 |
| 20260906121322 | 12 | 236 | 3.2 | 4.8 | 0.00 | 0.00 | 0.00 | 63 | 1017.2 |
| 20260906120818 | 13 | 247 | 0.0 | 0.0 | 0.00 | 0.00 | 0.00 | 57 | 1017.0 |
| 20260906120314 | 13 | 236 | 3.2 | 3.2 | 0.00 | 0.00 | 0.00 | 57 | 1017.2 |
| 20260906115810 | 14 | 219 | 1.6 | 1.6 | 0.00 | 0.00 | 0.00 | 53 | 1017.2 |
| 20260906115306 | 14 | 260 | 0.0 | 0.0 | 0.00 | 0.00 | 0.00 | 52 | 1016.9 |
| 20260906114805 | 14 | 73 | 6.4 | 8.0 | 0.00 | 0.00 | 0.00 | 49 | 1017.0 |
| 20260906114300 | 13 | 215 | 1.6 | 1.6 | 0.00 | 0.00 | 0.00 | 51 | 1017.0 |
| 20260906113755 | 13 | 209 | 1.6 | 3.2 | 0.00 | 0.00 | 0.00 | 57 | 1017.0 |
| 20260906113254 | 13 | 209 | 0.0 | 0.0 | 0.00 | 0.00 | 0.00 | 60 | 1017.0 |
| 20260906112754 | 13 | 236 | 3.2 | 3.2 | 0.00 | 0.00 | 0.00 | 58 | 1017.0 |
| 20260906112251 | 13 | 185 | 4.8 | 4.8 | 0.00 | 0.00 | 0.00 | 58 | 1017.0 |
| 20260906111744 | 13 | 203 | 0.0 | 0.0 | 0.00 | 0.00 | 0.00 | 59 | 1017.0 |
| 20260906111244 | 12 | 206 | 1.6 | 3.2 | 0.00 | 0.00 | 0.00 | 59 | 1016.9 |
| 20260906110739 | 12 | 220 | 0.0 | 1.6 | 0.00 | 0.00 | 0.00 | 62 | 1017.2 |
| 20260906110235 | 12 | 229 | 0.0 | 0.0 | 0.00 | 0.00 | 0.00 | 62 | 1017.0 |
| 20260906105733 | 13 | 232 | 0.0 | 1.6 | 0.00 | 0.00 | 0.00 | 62 | 1017.2 |
| 20260906105231 | 12 | 187 | 1.6 | 1.6 | 0.00 | 0.00 | 0.00 | 63 | 1017.0 |
| 20260906104731 | 12 | 220 | 0.0 | 0.0 | 0.00 | 0.00 | 0.00 | 64 | 1016.8 |
| 20260906104230 | 12 | 222 | 0.0 | 0.0 | 0.00 | 0.00 | 0.00 | 64 | 1016.9 |
| 20260906103727 | 12 | 222 | 0.0 | 0.0 | 0.00 | 0.00 | 0.00 | 63 | 1016.7 |
| 20260906103222 | 12 | 229 | 0.0 | 0.0 | 0.00 | 0.00 | 0.00 | 62 | 1016.7 |
| 20260906102718 | 13 | 236 | 0.0 | 0.0 | 0.00 | 0.00 | 0.00 | 61 | 1016.5 |
| 20260906102217 | 13 | 229 | 0.0 | 0.0 | 0.00 | 0.00 | 0.00 | 60 | 1016.9 |
| 20260906101712 | 13 | 219 | 0.0 | 0.0 | 0.00 | 0.00 | 0.00 | 58 | 1016.7 |
| 20260906101207 | 13 | 285 | 3.2 | 3.2 | 0.00 | 0.00 | 0.00 | 59 | 1016.9 |
| 20260906100703 | 13 | 207 | 1.6 | 1.6 | 0.00 | 0.00 | 0.00 | 59 | 1016.9 |
| 20260906100203 | 13 | 172 | 1.6 | 1.6 | 0.00 | 0.00 | 0.00 | 58 | 1016.6 |
| 20260906095657 | 13 | 167 | 1.6 | 1.6 | 0.00 | 0.00 | 0.00 | 61 | 1016.6 |
| 20260906095153 | 13 | 170 | 1.6 | 3.2 | 0.00 | 0.00 | 0.00 | 61 | 1016.9 |
| 20260906094651 | 13 | 221 | 1.6 | 1.6 | 0.00 | 0.00 | 0.00 | 60 | 1016.6 |
| 20260906094148 | 13 | 226 | 0.0 | 1.6 | 0.00 | 0.00 | 0.00 | 60 | 1016.5 |
| 20260906093644 | 13 | 216 | 0.0 | 0.0 | 0.00 | 0.00 | 0.00 | 62 | 1016.7 |
| 20260906093144 | 13 | 186 | 3.2 | 3.2 | 0.00 | 0.00 | 0.00 | 63 | 1016.6 |
| 20260906092638 | 13 | 206 | 1.6 | 1.6 | 0.00 | 0.00 | 0.00 | 61 | 1016.6 |
| 20260906092138 | 13 | 193 | 1.6 | 1.6 | 0.00 | 0.00 | 0.00 | 61 | 1016.6 |
| 20260906091635 | 13 | 233 | 0.0 | 0.0 | 0.00 | 0.00 | 0.00 | 62 | 1016.5 |
| 20260906091131 | 13 | 226 | 0.0 | 0.0 | 0.00 | 0.00 | 0.00 | 61 | 1016.5 |
| 20260906090626 | 14 | 246 | 1.6 | 1.6 | 0.00 | 0.00 | 0.00 | 60 | 1016.2 |
| 20260906090126 | 14 | 223 | 0.0 | 0.0 | 0.00 | 0.00 | 0.00 | 58 | 1016.4 |
| 20260906085625 | 14 | 284 | 0.0 | 0.0 | 0.00 | 0.00 | 0.00 | 59 | 1016.4 |
| 20260906085120 | 13 | 211 | 0.0 | 0.0 | 0.00 | 0.00 | 0.00 | 60 | 1016.2 |
| 20260906084614 | 14 | 213 | 0.0 | 0.0 | 0.00 | 0.00 | 0.00 | 62 | 1016.2 |
| 20260906084113 | 13 | 229 | 0.0 | 0.0 | 0.00 | 0.00 | 0.00 | 61 | 1016.2 |
| 20260906083609 | 14 | 222 | 0.0 | 0.0 | 0.00 | 0.00 | 0.00 | 61 | 1016.2 |
| 20260906083109 | 15 | 220 | 0.0 | 0.0 | 0.00 | 0.00 | 0.00 | 61 | 1016.5 |
| 20260906082604 | 14 | 263 | 1.6 | 3.2 | 0.00 | 0.00 | 0.00 | 61 | 1016.6 |
| 20260906082100 | 14 | 233 | 0.0 | 0.0 | 0.00 | 0.00 | 0.00 | 60 | 1016.1 |
| 20260906081555 | 14 | 243 | 1.6 | 1.6 | 0.00 | 0.00 | 0.00 | 61 | 1016.2 |
| 20260906081050 | 14 | 184 | 1.6 | 1.6 | 0.00 | 0.00 | 0.00 | 62 | 1016.2 |
| 20260906080548 | 14 | 173 | 1.6 | 1.6 | 0.00 | 0.00 | 0.00 | 61 | 1016.5 |
| 20260906080043 | 14 | 184 | 1.6 | 1.6 | 0.00 | 0.00 | 0.00 | 60 | 1016.4 |
| 20260906075543 | 15 | 227 | 0.0 | 0.0 | 0.00 | 0.00 | 0.00 | 59 | 1016.5 |
| 20260906075038 | 15 | 90 | 4.8 | 4.8 | 0.00 | 0.00 | 0.00 | 60 | 1016.4 |
| 20260906074532 | 15 | 128 | 3.2 | 3.2 | 0.00 | 0.00 | 0.00 | 59 | 1016.1 |
| 20260906074031 | 15 | 245 | 1.6 | 1.6 | 0.00 | 0.00 | 0.00 | 59 | 1016.5 |
| 20260906073526 | 15 | 164 | 0.0 | 0.0 | 0.00 | 0.00 | 0.00 | 57 | 1016.5 |
| 20260906073022 | 15 | 205 | 3.2 | 3.2 | 0.00 | 0.00 | 0.00 | 58 | 1016.2 |
| 20260906072517 | 15 | 215 | 0.0 | 0.0 | 0.00 | 0.00 | 0.00 | 58 | 1016.5 |
| 20260906072013 | 15 | 221 | 0.0 | 0.0 | 0.00 | 0.00 | 0.00 | 57 | 1016.6 |
| 20260906071509 | 15 | 203 | 0.0 | 0.0 | 0.00 | 0.00 | 0.00 | 58 | 1016.4 |
| 20260906071004 | 15 | 226 | 0.0 | 0.0 | 0.00 | 0.00 | 0.00 | 57 | 1016.2 |
| 20260906070501 | 15 | 225 | 1.6 | 1.6 | 0.00 | 0.00 | 0.00 | 57 | 1016.2 |
| 20260906065956 | 15 | 225 | 3.2 | 3.2 | 0.00 | 0.00 | 0.00 | 57 | 1016.1 |
| 20260906065455 | 15 | 190 | 1.6 | 1.6 | 0.00 | 0.00 | 0.00 | 54 | 1016.1 |
| 20260906064951 | 15 | 258 | 3.2 | 3.2 | 0.00 | 0.00 | 0.00 | 56 | 1016.2 |
| 20260906064447 | 15 | 213 | 1.6 | 3.2 | 0.00 | 0.00 | 0.00 | 54 | 1016.1 |
| 20260906063941 | 15 | 216 | 0.0 | 1.6 | 0.00 | 0.00 | 0.00 | 55 | 1016.4 |
| 20260906063437 | 15 | 175 | 1.6 | 1.6 | 0.00 | 0.00 | 0.00 | 56 | 1016.5 |
| 20260906062937 | 15 | 207 | 0.0 | 0.0 | 0.00 | 0.00 | 0.00 | 56 | 1016.0 |
| 20260906062432 | 15 | 219 | 0.0 | 0.0 | 0.00 | 0.00 | 0.00 | 55 | 1016.1 |
| 20260906061927 | 15 | 224 | 0.0 | 0.0 | 0.00 | 0.00 | 0.00 | 55 | 1016.2 |
| 20260906061424 | 15 | 192 | 0.0 | 0.0 | 0.00 | 0.00 | 0.00 | 55 | 1016.1 |
| 20260906060917 | 15 | 215 | 0.0 | 0.0 | 0.00 | 0.00 | 0.00 | 54 | 1016.1 |
| 20260906060415 | 16 | 104 | 0.0 | 0.0 | 0.00 | 0.00 | 0.00 | 54 | 1016.1 |
| 20260906055911 | 16 | 230 | 0.0 | 0.0 | 0.00 | 0.00 | 0.00 | 53 | 1015.9 |
| 20260906055407 | 16 | 210 | 0.0 | 1.6 | 0.00 | 0.00 | 0.00 | 52 | 1016.2 |
| 20260906054902 | 16 | 182 | 4.8 | 8.0 | 0.00 | 0.00 | 0.00 | 52 | 1016.4 |
| 20260906054356 | 17 | 204 | 0.0 | 0.0 | 0.00 | 0.00 | 0.00 | 51 | 1016.0 |
| 20260906053853 | 17 | 217 | 0.0 | 0.0 | 0.00 | 0.00 | 0.00 | 49 | 1016.1 |
| 20260906053348 | 17 | 222 | 3.2 | 3.2 | 0.00 | 0.00 | 0.00 | 48 | 1016.0 |
| 20260906052844 | 17 | 223 | 0.0 | 0.0 | 0.00 | 0.00 | 0.00 | 47 | 1016.2 |
| 20260906052340 | 18 | 217 | 0.0 | 1.6 | 0.00 | 0.00 | 0.00 | 46 | 1015.9 |
| 20260906051837 | 18 | 200 | 1.6 | 1.6 | 0.00 | 0.00 | 0.00 | 44 | 1016.1 |
| 20260906051336 | 17 | 249 | 1.6 | 1.6 | 0.00 | 0.00 | 0.00 | 45 | 1016.1 |
| 20260906050832 | 18 | 223 | 0.0 | 0.0 | 0.00 | 0.00 | 0.00 | 46 | 1016.1 |
| 20260906050327 | 18 | 223 | 0.0 | 0.0 | 0.00 | 0.00 | 0.00 | 46 | 1016.2 |
| 20260906045825 | 18 | 193 | 0.0 | 0.0 | 0.00 | 0.00 | 0.00 | 44 | 1016.1 |
| 20260906045320 | 20 | 209 | 0.0 | 0.0 | 0.00 | 0.00 | 0.00 | 42 | 1016.2 |
| 20260906044817 | 20 | 239 | 0.0 | 1.6 | 0.00 | 0.00 | 0.00 | 41 | 1016.2 |
| 20260906044311 | 20 | 204 | 1.6 | 3.2 | 0.00 | 0.00 | 0.00 | 40 | 1016.0 |
| 20260906043807 | 20 | 206 | 3.2 | 3.2 | 0.00 | 0.00 | 0.00 | 40 | 1016.4 |
| 20260906043303 | 20 | 215 | 0.0 | 0.0 | 0.00 | 0.00 | 0.00 | 40 | 1016.1 |
| 20260906042803 | 20 | 211 | 0.0 | 0.0 | 0.00 | 0.00 | 0.00 | 39 | 1016.1 |
| 20260906042302 | 21 | 194 | 1.6 | 1.6 | 0.00 | 0.00 | 0.00 | 39 | 1016.1 |
| 20260906041757 | 21 | 174 | 3.2 | 3.2 | 0.00 | 0.00 | 0.00 | 37 | 1016.2 |
| 20260906041252 | 21 | 216 | 3.2 | 3.2 | 0.00 | 0.00 | 0.00 | 37 | 1016.1 |
| 20260906040748 | 21 | 192 | 4.8 | 4.8 | 0.00 | 0.00 | 0.00 | 39 | 1016.0 |
| 20260906040243 | 21 | 209 | 1.6 | 3.2 | 0.00 | 0.00 | 0.00 | 41 | 1016.4 |
| 20260906035738 | 20 | 195 | 4.8 | 4.8 | 0.00 | 0.00 | 0.00 | 40 | 1016.4 |
| 20260906035234 | 20 | 215 | 0.0 | 0.0 | 0.00 | 0.00 | 0.00 | 42 | 1016.2 |
| 20260906034734 | 20 | 214 | 0.0 | 0.0 | 0.00 | 0.00 | 0.00 | 42 | 1016.2 |
| 20260906034229 | 20 | 213 | 0.0 | 0.0 | 0.00 | 0.00 | 0.00 | 43 | 1016.2 |
| 20260906033724 | 20 | 214 | 0.0 | 0.0 | 0.00 | 0.00 | 0.00 | 42 | 1016.0 |
| 20260906033224 | 21 | 191 | 3.2 | 3.2 | 0.00 | 0.00 | 0.00 | 41 | 1015.9 |
| 20260906032721 | 21 | 205 | 1.6 | 3.2 | 0.00 | 0.00 | 0.00 | 42 | 1016.1 |
| 20260906032221 | 21 | 206 | 3.2 | 3.2 | 0.00 | 0.00 | 0.00 | 41 | 1015.8 |
| 20260906031716 | 21 | 215 | 1.6 | 1.6 | 0.00 | 0.00 | 0.00 | 42 | 1015.9 |
| 20260906031211 | 22 | 221 | 4.8 | 4.8 | 0.00 | 0.00 | 0.00 | 41 | 1015.7 |
| 20260906030711 | 22 | 216 | 4.8 | 4.8 | 0.00 | 0.00 | 0.00 | 41 | 1015.7 |
| 20260906030206 | 22 | 211 | 3.2 | 3.2 | 0.00 | 0.00 | 0.00 | 39 | 1015.8 |
| 20260906025705 | 23 | 215 | 0.0 | 0.0 | 0.00 | 0.00 | 0.00 | 35 | 1015.7 |
| 20260906025200 | 23 | 212 | 0.0 | 0.0 | 0.00 | 0.00 | 0.00 | 33 | 1015.7 |
| 20260906024700 | 23 | 175 | 3.2 | 3.2 | 0.00 | 0.00 | 0.00 | 33 | 1015.3 |
| 20260906024159 | 23 | 134 | 3.2 | 3.2 | 0.00 | 0.00 | 0.00 | 34 | 1015.3 |
| 20260906023655 | 23 | 153 | 3.2 | 3.2 | 0.00 | 0.00 | 0.00 | 36 | 1015.3 |
| 20260906023155 | 23 | 135 | 0.0 | 0.0 | 0.00 | 0.00 | 0.00 | 37 | 1015.2 |
| 20260906022650 | 23 | 137 | 0.0 | 0.0 | 0.00 | 0.00 | 0.00 | 36 | 1015.3 |
| 20260906022146 | 23 | 177 | 0.0 | 0.0 | 0.00 | 0.00 | 0.00 | 38 | 1015.4 |
| 20260906021641 | 23 | 161 | 0.0 | 0.0 | 0.00 | 0.00 | 0.00 | 38 | 1015.4 |
| 20260906021140 | 24 | 207 | 0.0 | 0.0 | 0.00 | 0.00 | 0.00 | 37 | 1015.4 |
| 20260906020634 | 24 | 181 | 0.0 | 0.0 | 0.00 | 0.00 | 0.00 | 36 | 1015.6 |
| 20260906020129 | 25 | 170 | 0.0 | 0.0 | 0.00 | 0.00 | 0.00 | 36 | 1015.6 |
| 20260906015624 | 25 | 211 | 0.0 | 0.0 | 0.00 | 0.00 | 0.00 | 35 | 1015.6 |
| 20260906015123 | 25 | 214 | 0.0 | 0.0 | 0.00 | 0.00 | 0.00 | 35 | 1015.7 |
| 20260906014622 | 26 | 197 | 0.0 | 0.0 | 0.00 | 0.00 | 0.00 | 33 | 1015.7 |
| 20260906014119 | 26 | 220 | 0.0 | 0.0 | 0.00 | 0.00 | 0.00 | 32 | 1015.8 |
| 20260906013615 | 26 | 221 | 0.0 | 0.0 | 0.00 | 0.00 | 0.00 | 31 | 1015.8 |
| 20260906013110 | 27 | 223 | 0.0 | 0.0 | 0.00 | 0.00 | 0.00 | 30 | 1015.7 |
| 20260906012605 | 27 | 222 | 0.0 | 0.0 | 0.00 | 0.00 | 0.00 | 30 | 1015.8 |
| 20260906012105 | 27 | 212 | 0.0 | 0.0 | 0.00 | 0.00 | 0.00 | 28 | 1015.8 |
| 20260906011601 | 28 | 212 | 1.6 | 1.6 | 0.00 | 0.00 | 0.00 | 28 | 1015.8 |
| 20260906011100 | 28 | 218 | 1.6 | 1.6 | 0.00 | 0.00 | 0.00 | 27 | 1015.7 |
| 20260906010556 | 28 | 215 | 3.2 | 3.2 | 0.00 | 0.00 | 0.00 | 28 | 1015.9 |
| 20260906010052 | 28 | 229 | 4.8 | 8.0 | 0.00 | 0.00 | 0.00 | 26 | 1016.0 |
| 20260906005551 | 28 | 222 | 9.7 | 9.7 | 0.00 | 0.00 | 0.00 | 26 | 1015.8 |
| 20260906005051 | 28 | 229 | 8.0 | 9.7 | 0.00 | 0.00 | 0.00 | 26 | 1016.0 |
| 20260906004550 | 28 | 233 | 6.4 | 8.0 | 0.00 | 0.00 | 0.00 | 28 | 1015.8 |
| 20260906004045 | 28 | 233 | 3.2 | 4.8 | 0.00 | 0.00 | 0.00 | 28 | 1015.9 |
| 20260906003540 | 28 | 196 | 9.7 | 11.3 | 0.00 | 0.00 | 0.00 | 27 | 1015.9 |
| 20260906003037 | 29 | 208 | 8.0 | 9.7 | 0.00 | 0.00 | 0.00 | 27 | 1015.8 |
| 20260906002536 | 29 | 241 | 8.0 | 8.0 | 0.00 | 0.00 | 0.00 | 25 | 1015.7 |
| 20260906002031 | 29 | 224 | 3.2 | 4.8 | 0.00 | 0.00 | 0.00 | 26 | 1015.8 |
| 20260906001527 | 29 | 224 | 6.4 | 8.0 | 0.00 | 0.00 | 0.00 | 26 | 1015.7 |
| 20260906001021 | 29 | 228 | 1.6 | 3.2 | 0.00 | 0.00 | 0.00 | 27 | 1015.8 |
| 20260906000517 | 29 | 215 | 4.8 | 8.0 | 0.00 | 0.00 | 0.00 | 25 | 1016.0 |
| 20260906000012 | 29 | 233 | 6.4 | 8.0 | 0.00 | 0.00 | 0.00 | 26 | 1015.8 |
| 20260905235511 | 29 | 248 | 11.3 | 11.3 | 0.00 | 0.00 | 0.00 | 26 | 1015.7 |
| 20260905235007 | 29 | 242 | 11.3 | 12.9 | 0.00 | 0.00 | 0.00 | 25 | 1016.1 |